createdAt,value
2022-12-31T00:02:09.363Z,99348.91
2022-12-31T00:04:36.720Z,99354.03
2022-12-31T00:07:03.648Z,99350.41
2022-12-31T00:09:30.819Z,99339.06
2022-12-31T00:11:57.653Z,99336.59
2022-12-31T00:14:25.794Z,99336.75
2022-12-31T00:16:52.708Z,99335.78
2022-12-31T00:19:19.543Z,99336.88
2022-12-31T00:21:46.619Z,99328.88
2022-12-31T00:24:13.612Z,99317.84
2022-12-31T00:26:40.469Z,99328.75
2022-12-31T00:29:07.455Z,99326.00
2022-12-31T00:31:34.357Z,99319.16
2022-12-31T00:34:01.638Z,99311.53
2022-12-31T00:36:29.700Z,99313.44
2022-12-31T00:38:56.888Z,99317.78
2022-12-31T00:41:24.047Z,99308.19
2022-12-31T00:43:50.917Z,99308.16
2022-12-31T00:46:18.310Z,99311.47
2022-12-31T00:48:45.191Z,99327.09
2022-12-31T00:51:12.076Z,99331.31
2022-12-31T00:53:38.889Z,99338.78
2022-12-31T00:56:05.925Z,99330.50
2022-12-31T00:58:32.795Z,99340.91
2022-12-31T01:01:00.818Z,99337.31
2022-12-31T01:03:27.811Z,99332.84
2022-12-31T01:05:54.805Z,99334.88
2022-12-31T01:08:21.737Z,99343.94
2022-12-31T01:10:48.665Z,99363.31
2022-12-31T01:13:15.459Z,99364.25
2022-12-31T01:15:42.480Z,99367.06
2022-12-31T01:18:09.402Z,99369.25
2022-12-31T01:20:36.305Z,99380.34
2022-12-31T01:23:03.361Z,99388.41
2022-12-31T01:25:30.503Z,99396.19
2022-12-31T01:27:57.431Z,99375.47
2022-12-31T01:30:25.371Z,99393.25
2022-12-31T01:32:53.717Z,99401.19
2022-12-31T01:35:20.638Z,99405.56
2022-12-31T01:37:47.472Z,99407.81
2022-12-31T01:40:16.570Z,99411.28
2022-12-31T01:42:43.828Z,99387.88
2022-12-31T01:45:10.702Z,99403.16
2022-12-31T01:47:37.560Z,99385.22
2022-12-31T01:50:04.345Z,99387.03
2022-12-31T01:52:31.570Z,99386.69
2022-12-31T01:54:58.377Z,99394.88
2022-12-31T01:57:25.399Z,99402.47
2022-12-31T01:59:52.821Z,99394.78
2022-12-31T02:02:19.845Z,99401.75
2022-12-31T02:04:47.743Z,99390.53
2022-12-31T02:07:14.620Z,99404.78
2022-12-31T02:09:41.508Z,99410.34
2022-12-31T02:12:08.763Z,99391.63
2022-12-31T02:14:35.668Z,99406.66
2022-12-31T02:17:02.521Z,99389.03
2022-12-31T02:19:29.379Z,99397.53
2022-12-31T02:21:57.342Z,99385.22
2022-12-31T02:24:24.316Z,99392.16
2022-12-31T02:26:51.557Z,99391.00
2022-12-31T02:29:18.485Z,99388.47
2022-12-31T02:31:45.549Z,99390.19
2022-12-31T02:34:12.603Z,99395.00
2022-12-31T02:36:39.482Z,99395.59
2022-12-31T02:39:06.439Z,99393.44
2022-12-31T02:41:33.320Z,99410.13
2022-12-31T02:44:00.914Z,99402.59
2022-12-31T02:46:30.004Z,99407.16
2022-12-31T02:48:56.832Z,99410.44
2022-12-31T02:51:23.759Z,99414.41
2022-12-31T02:53:50.553Z,99403.03
2022-12-31T02:56:17.824Z,99414.50
2022-12-31T02:58:44.716Z,99416.47
2022-12-31T03:01:11.862Z,99411.38
2022-12-31T03:03:38.769Z,99415.78
2022-12-31T03:06:05.844Z,99421.31
2022-12-31T03:08:32.952Z,99427.69
2022-12-31T03:11:00.453Z,99430.47
2022-12-31T03:13:27.509Z,99437.66
2022-12-31T03:15:57.389Z,99437.03
2022-12-31T03:18:24.305Z,99447.91
2022-12-31T03:20:51.178Z,99441.78
2022-12-31T03:23:18.987Z,99444.75
2022-12-31T03:25:45.841Z,99443.19
2022-12-31T03:28:13.056Z,99447.75
2022-12-31T03:30:40.097Z,99448.84
2022-12-31T03:33:06.927Z,99451.97
2022-12-31T03:35:33.995Z,99450.97
2022-12-31T03:38:01.396Z,99449.28
2022-12-31T03:40:28.293Z,99446.59
2022-12-31T03:42:55.420Z,99454.38
2022-12-31T03:45:22.319Z,99453.38
2022-12-31T03:47:49.819Z,99446.22
2022-12-31T03:50:16.619Z,99463.66
2022-12-31T03:52:43.478Z,99460.81
2022-12-31T03:55:10.340Z,99466.97
2022-12-31T03:57:37.389Z,99464.53
2022-12-31T04:00:04.249Z,99465.25
2022-12-31T04:02:31.430Z,99473.78
2022-12-31T04:04:58.529Z,99467.19
2022-12-31T04:07:25.654Z,99480.22
2022-12-31T04:09:52.474Z,99476.50
2022-12-31T04:12:19.520Z,99475.38
2022-12-31T04:14:46.419Z,99482.38
2022-12-31T04:17:13.393Z,99494.91
2022-12-31T04:19:40.664Z,99503.59
2022-12-31T04:22:08.027Z,99502.97
2022-12-31T04:24:34.926Z,99515.75
2022-12-31T04:27:07.291Z,99504.28
2022-12-31T04:29:34.752Z,99500.50
2022-12-31T04:32:01.719Z,99504.41
2022-12-31T04:34:28.855Z,99516.34
2022-12-31T04:36:55.752Z,99518.59
2022-12-31T04:39:22.612Z,99521.16
2022-12-31T04:41:49.465Z,99537.66
2022-12-31T04:44:16.387Z,99522.75
2022-12-31T04:46:43.430Z,99524.47
2022-12-31T04:49:10.384Z,99518.75
2022-12-31T04:51:37.302Z,99505.38
2022-12-31T04:54:04.130Z,99510.19
2022-12-31T04:56:31.074Z,99507.31
2022-12-31T04:58:58.152Z,99508.16
2022-12-31T05:01:26.267Z,99506.25
2022-12-31T05:03:53.236Z,99509.66
2022-12-31T05:06:22.683Z,99513.88
2022-12-31T05:08:49.689Z,99520.03
2022-12-31T05:11:16.689Z,99517.59
2022-12-31T05:13:43.815Z,99508.81
2022-12-31T05:16:10.761Z,99515.09
2022-12-31T05:18:37.728Z,99516.66
2022-12-31T05:21:04.783Z,99527.22
2022-12-31T05:23:31.731Z,99529.84
2022-12-31T05:25:58.854Z,99522.69
2022-12-31T05:28:25.799Z,99522.81
2022-12-31T05:30:52.988Z,99526.69
2022-12-31T05:33:19.882Z,99528.34
2022-12-31T05:35:46.764Z,99536.84
2022-12-31T05:38:13.812Z,99543.91
2022-12-31T05:40:40.668Z,99543.50
2022-12-31T05:43:07.909Z,99536.22
2022-12-31T05:45:34.770Z,99543.28
2022-12-31T05:48:01.726Z,99548.28
2022-12-31T05:50:28.931Z,99546.38
2022-12-31T05:52:56.032Z,99535.94
2022-12-31T05:55:23.397Z,99539.59
2022-12-31T05:57:50.311Z,99539.75
2022-12-31T06:00:17.201Z,99539.59
2022-12-31T06:02:44.312Z,99545.66
2022-12-31T06:05:11.316Z,99545.50
2022-12-31T06:07:39.099Z,99542.06
2022-12-31T06:10:08.228Z,99531.25
2022-12-31T06:12:35.137Z,99541.97
2022-12-31T06:15:01.973Z,99531.41
2022-12-31T06:17:28.979Z,99535.28
2022-12-31T06:19:55.813Z,99532.50
2022-12-31T06:22:22.641Z,99520.28
2022-12-31T06:24:49.476Z,99532.44
2022-12-31T06:27:17.827Z,99534.88
2022-12-31T06:29:44.701Z,99543.41
2022-12-31T06:32:12.075Z,99540.06
2022-12-31T06:34:38.868Z,99545.03
2022-12-31T06:37:05.826Z,99551.91
2022-12-31T06:39:32.722Z,99557.97
2022-12-31T06:41:59.633Z,99557.34
2022-12-31T06:44:26.446Z,99548.56
2022-12-31T06:46:55.771Z,99545.84
2022-12-31T06:49:23.617Z,99563.00
2022-12-31T06:51:50.598Z,99566.00
2022-12-31T06:54:17.762Z,99570.09
2022-12-31T06:56:44.741Z,99566.44
2022-12-31T06:59:11.588Z,99565.81
2022-12-31T07:01:41.223Z,99573.44
2022-12-31T07:04:08.156Z,99575.25
2022-12-31T07:06:35.029Z,99584.94
2022-12-31T07:09:01.950Z,99582.09
2022-12-31T07:11:29.103Z,99582.53
2022-12-31T07:13:57.014Z,99586.59
2022-12-31T07:16:24.312Z,99579.72
2022-12-31T07:18:51.655Z,99596.31
2022-12-31T07:21:18.635Z,99600.53
2022-12-31T07:23:45.461Z,99602.91
2022-12-31T07:26:12.566Z,99600.41
2022-12-31T07:28:39.562Z,99606.72
2022-12-31T07:31:06.722Z,99614.25
2022-12-31T07:33:34.325Z,99626.31
2022-12-31T07:36:01.736Z,99626.66
2022-12-31T07:38:28.648Z,99604.13
2022-12-31T07:40:58.024Z,99610.03
2022-12-31T07:43:26.267Z,99608.28
2022-12-31T07:45:53.152Z,99615.09
2022-12-31T07:48:22.696Z,99615.28
2022-12-31T07:50:49.554Z,99624.75
2022-12-31T07:53:16.396Z,99619.72
2022-12-31T07:55:43.232Z,99620.53
2022-12-31T07:58:10.123Z,99622.25
2022-12-31T08:00:37.302Z,99616.50
2022-12-31T08:03:04.441Z,99614.41
2022-12-31T08:05:31.597Z,99620.59
2022-12-31T08:07:58.624Z,99631.72
2022-12-31T08:10:27.068Z,99628.00
2022-12-31T08:12:53.953Z,99624.41
2022-12-31T08:15:25.412Z,99621.84
2022-12-31T08:17:55.793Z,99626.13
2022-12-31T08:20:22.946Z,99631.44
2022-12-31T08:22:50.343Z,99624.19
2022-12-31T08:25:19.288Z,99615.97
2022-12-31T08:27:46.195Z,99610.91
2022-12-31T08:30:13.100Z,99623.16
2022-12-31T08:32:40.477Z,99627.41
2022-12-31T08:35:08.600Z,99629.69
2022-12-31T08:37:35.498Z,99633.38
2022-12-31T08:40:02.401Z,99646.34
2022-12-31T08:42:29.447Z,99650.75
2022-12-31T08:44:57.625Z,99649.63
2022-12-31T08:47:24.672Z,99645.25
2022-12-31T08:49:51.565Z,99651.16
2022-12-31T08:52:18.432Z,99655.63
2022-12-31T08:54:45.347Z,99658.19
2022-12-31T08:57:13.247Z,99666.84
2022-12-31T08:59:40.153Z,99666.84
2022-12-31T09:02:08.086Z,99665.91
2022-12-31T09:04:35.126Z,99674.66
2022-12-31T09:07:02.473Z,99667.66
2022-12-31T09:09:30.541Z,99659.13
2022-12-31T09:11:57.370Z,99654.59
2022-12-31T09:14:24.361Z,99634.66
2022-12-31T09:16:51.699Z,99637.91
2022-12-31T09:19:18.601Z,99658.16
2022-12-31T09:21:45.606Z,99656.25
2022-12-31T09:24:12.504Z,99661.72
2022-12-31T09:26:40.328Z,99666.69
2022-12-31T09:29:07.803Z,99663.84
2022-12-31T09:31:34.750Z,99665.66
2022-12-31T09:34:01.676Z,99671.59
2022-12-31T09:36:29.111Z,99672.59
2022-12-31T09:38:56.047Z,99659.94
2022-12-31T09:41:23.027Z,99662.47
2022-12-31T09:43:49.921Z,99649.22
2022-12-31T09:46:16.811Z,99647.50
2022-12-31T09:48:44.238Z,99650.25
2022-12-31T09:51:11.143Z,99661.91
2022-12-31T09:53:37.951Z,99652.91
2022-12-31T09:56:04.833Z,99653.63
2022-12-31T09:58:31.659Z,99651.25
2022-12-31T10:00:58.663Z,99658.31
2022-12-31T10:03:25.716Z,99648.41
2022-12-31T10:05:52.763Z,99657.66
2022-12-31T10:08:19.709Z,99649.47
2022-12-31T10:10:46.504Z,99645.69
2022-12-31T10:13:13.419Z,99641.31
2022-12-31T10:15:40.243Z,99641.91
2022-12-31T10:18:06.991Z,99640.66
2022-12-31T10:20:33.869Z,99627.50
2022-12-31T10:23:00.795Z,99637.00
2022-12-31T10:25:38.386Z,99630.09
2022-12-31T10:28:06.467Z,99619.63
2022-12-31T10:30:33.584Z,99627.16
2022-12-31T10:33:00.724Z,99633.81
2022-12-31T10:35:28.244Z,99633.25
2022-12-31T10:37:55.190Z,99624.91
2022-12-31T10:40:22.006Z,99628.16
2022-12-31T10:42:48.829Z,99623.03
2022-12-31T10:45:16.199Z,99635.06
2022-12-31T10:47:43.318Z,99630.06
2022-12-31T10:50:11.363Z,99620.28
2022-12-31T10:52:41.970Z,99616.56
2022-12-31T10:55:09.291Z,99605.91
2022-12-31T10:57:36.114Z,99604.19
2022-12-31T11:00:03.101Z,99590.78
2022-12-31T11:02:30.139Z,99593.44
2022-12-31T11:04:57.483Z,99586.63
2022-12-31T11:07:24.309Z,99585.53
2022-12-31T11:09:51.080Z,99577.59
2022-12-31T11:12:17.944Z,99578.50
2022-12-31T11:14:44.789Z,99570.72
2022-12-31T11:17:11.639Z,99576.84
2022-12-31T11:19:38.506Z,99576.84
2022-12-31T11:22:05.390Z,99576.41
2022-12-31T11:24:32.266Z,99577.50
2022-12-31T11:26:59.118Z,99577.09
2022-12-31T11:29:25.887Z,99584.13
2022-12-31T11:31:52.730Z,99579.91
2022-12-31T11:34:23.156Z,99580.75
2022-12-31T11:36:50.041Z,99574.88
2022-12-31T11:39:16.927Z,99575.22
2022-12-31T11:41:43.821Z,99576.94
2022-12-31T11:44:10.623Z,99578.66
2022-12-31T11:46:37.557Z,99570.59
2022-12-31T11:49:04.516Z,99563.63
2022-12-31T11:51:31.457Z,99560.25
2022-12-31T11:53:58.435Z,99562.94
2022-12-31T11:56:25.243Z,99558.47
2022-12-31T11:58:52.176Z,99560.19
2022-12-31T12:01:19.072Z,99571.38
2022-12-31T12:03:46.062Z,99568.44
2022-12-31T12:06:13.945Z,99566.41
2022-12-31T12:08:40.947Z,99562.53
2022-12-31T12:11:07.783Z,99552.63
2022-12-31T12:13:34.635Z,99549.72
2022-12-31T12:16:01.864Z,99558.28
2022-12-31T12:18:28.832Z,99547.06
2022-12-31T12:20:55.877Z,99549.19
2022-12-31T12:23:24.449Z,99556.84
2022-12-31T12:25:51.994Z,99560.41
2022-12-31T12:28:19.304Z,99555.75
2022-12-31T12:30:46.243Z,99554.91
2022-12-31T12:33:13.084Z,99560.88
2022-12-31T12:35:40.167Z,99562.72
2022-12-31T12:38:07.000Z,99568.81
2022-12-31T12:40:35.016Z,99568.28
2022-12-31T12:43:02.159Z,99557.03
2022-12-31T12:45:29.148Z,99555.72
2022-12-31T12:47:56.154Z,99581.13
2022-12-31T12:50:23.065Z,99577.13
2022-12-31T12:52:52.754Z,99580.09
2022-12-31T12:55:21.869Z,99565.16
2022-12-31T12:57:49.031Z,99568.28
2022-12-31T13:00:16.008Z,99566.06
2022-12-31T13:02:45.938Z,99557.69
2022-12-31T13:05:13.891Z,99561.75
2022-12-31T13:07:40.898Z,99576.03
2022-12-31T13:10:07.966Z,99576.31
2022-12-31T13:13:05.171Z,99576.25
2022-12-31T13:15:22.025Z,99557.00
2022-12-31T13:17:54.087Z,99574.28
2022-12-31T13:20:23.361Z,99558.16
2022-12-31T13:22:50.261Z,99572.63
2022-12-31T13:25:17.068Z,99558.16
2022-12-31T13:27:43.863Z,99564.50
2022-12-31T13:30:11.031Z,99573.16
2022-12-31T13:32:38.109Z,99568.09
2022-12-31T13:35:04.939Z,99557.78
2022-12-31T13:37:31.805Z,99568.06
2022-12-31T13:40:01.995Z,99580.72
2022-12-31T13:42:29.694Z,99578.66
2022-12-31T13:44:56.524Z,99585.16
2022-12-31T13:47:23.649Z,99586.88
2022-12-31T13:49:53.034Z,99577.41
2022-12-31T13:52:19.957Z,99577.06
2022-12-31T13:54:46.860Z,99572.81
2022-12-31T13:57:13.822Z,99573.00
2022-12-31T13:59:40.694Z,99576.78
2022-12-31T14:02:08.048Z,99578.88
2022-12-31T14:04:35.256Z,99582.56
2022-12-31T14:07:02.325Z,99585.16
2022-12-31T14:09:29.169Z,99593.31
2022-12-31T14:11:56.034Z,99591.81
2022-12-31T14:14:22.958Z,99592.06
2022-12-31T14:16:49.892Z,99598.94
2022-12-31T14:19:16.781Z,99594.56
2022-12-31T14:21:43.673Z,99597.19
2022-12-31T14:24:10.498Z,99595.66
2022-12-31T14:26:37.638Z,99599.00
2022-12-31T14:29:04.487Z,99590.31
2022-12-31T14:31:31.423Z,99587.16
2022-12-31T14:33:58.299Z,99599.53
2022-12-31T14:36:25.258Z,99592.25
2022-12-31T14:38:52.152Z,99601.25
2022-12-31T14:41:20.257Z,99610.66
2022-12-31T14:43:47.107Z,99604.16
2022-12-31T14:46:14.122Z,99603.28
2022-12-31T14:48:41.260Z,99601.69
2022-12-31T14:51:08.176Z,99604.31
2022-12-31T14:53:35.153Z,99602.84
2022-12-31T14:56:02.360Z,99601.88
2022-12-31T14:58:29.493Z,99592.34
2022-12-31T15:00:56.526Z,99590.66
2022-12-31T15:03:23.621Z,99596.72
2022-12-31T15:05:50.696Z,99595.94
2022-12-31T15:08:17.622Z,99593.56
2022-12-31T15:10:44.514Z,99586.16
2022-12-31T15:13:11.419Z,99592.38
2022-12-31T15:15:38.508Z,99589.09
2022-12-31T15:18:05.344Z,99589.31
2022-12-31T15:20:34.204Z,99589.44
2022-12-31T15:23:01.085Z,99590.66
2022-12-31T15:25:27.990Z,99598.69
2022-12-31T15:27:54.882Z,99590.06
2022-12-31T15:30:21.749Z,99605.16
2022-12-31T15:32:48.546Z,99612.34
2022-12-31T15:35:16.013Z,99602.09
2022-12-31T15:37:42.941Z,99605.41
2022-12-31T15:40:10.526Z,99595.78
2022-12-31T15:42:39.275Z,99588.06
2022-12-31T15:45:07.788Z,99603.91
2022-12-31T15:47:34.704Z,99596.97
2022-12-31T15:50:01.743Z,99590.50
2022-12-31T15:52:28.744Z,99600.03
2022-12-31T15:54:55.865Z,99591.94
2022-12-31T15:57:22.949Z,99598.56
2022-12-31T15:59:49.773Z,99597.31
2022-12-31T16:02:16.922Z,99598.44
2022-12-31T16:04:44.439Z,99598.25
2022-12-31T16:07:11.349Z,99600.03
2022-12-31T16:09:38.165Z,99603.13
2022-12-31T16:12:05.040Z,99607.63
2022-12-31T16:14:31.817Z,99628.88
2022-12-31T16:16:58.664Z,99629.84
2022-12-31T16:19:25.975Z,99622.91
2022-12-31T16:21:52.756Z,99635.31
2022-12-31T16:24:19.997Z,99638.91
2022-12-31T16:26:46.908Z,99637.28
2022-12-31T16:29:13.757Z,99636.44
2022-12-31T16:31:40.739Z,99646.25
2022-12-31T16:34:08.068Z,99647.16
2022-12-31T16:36:34.902Z,99642.66
2022-12-31T16:39:01.695Z,99646.25
2022-12-31T16:41:29.029Z,99647.97
2022-12-31T16:43:56.190Z,99652.25
2022-12-31T16:46:23.343Z,99649.66
2022-12-31T16:48:50.274Z,99639.09
2022-12-31T16:51:17.189Z,99642.53
2022-12-31T16:53:44.020Z,99638.28
2022-12-31T16:56:10.996Z,99639.03
2022-12-31T16:58:38.044Z,99641.59
2022-12-31T17:01:05.117Z,99634.72
2022-12-31T17:03:32.252Z,99643.41
2022-12-31T17:05:59.147Z,99626.94
2022-12-31T17:08:25.993Z,99617.72
2022-12-31T17:10:52.900Z,99621.59
2022-12-31T17:13:29.141Z,99625.75
2022-12-31T17:15:56.877Z,99620.53
2022-12-31T17:18:23.797Z,99624.03
2022-12-31T17:20:50.664Z,99614.47
2022-12-31T17:23:17.806Z,99615.50
2022-12-31T17:25:44.795Z,99612.88
2022-12-31T17:28:11.659Z,99613.97
2022-12-31T17:30:38.484Z,99613.97
2022-12-31T17:33:05.390Z,99613.22
2022-12-31T17:35:32.279Z,99614.13
2022-12-31T17:37:59.226Z,99607.94
2022-12-31T17:40:50.309Z,99606.16
2022-12-31T17:43:12.878Z,99609.53
2022-12-31T17:45:40.047Z,99613.47
2022-12-31T17:48:07.099Z,99610.75
2022-12-31T17:50:34.200Z,99608.44
2022-12-31T17:53:01.263Z,99622.66
2022-12-31T17:55:28.223Z,99625.72
2022-12-31T17:57:55.091Z,99618.94
2022-12-31T18:00:22.483Z,99620.47
2022-12-31T18:02:49.510Z,99620.84
2022-12-31T18:05:16.376Z,99621.31
2022-12-31T18:07:43.233Z,99613.69
2022-12-31T18:10:10.240Z,99621.31
2022-12-31T18:12:37.428Z,99623.44
2022-12-31T18:15:04.229Z,99618.06
2022-12-31T18:17:31.523Z,99624.84
2022-12-31T18:20:06.483Z,99618.06
2022-12-31T18:22:33.819Z,99614.88
2022-12-31T18:25:00.651Z,99612.88
2022-12-31T18:27:28.061Z,99621.63
2022-12-31T18:29:59.098Z,99616.25
2022-12-31T18:32:32.193Z,99607.56
2022-12-31T18:35:00.258Z,99611.56
2022-12-31T18:37:28.854Z,99612.63
2022-12-31T18:39:55.947Z,99617.19
2022-12-31T18:42:22.917Z,99616.00
2022-12-31T18:44:49.771Z,99630.97
2022-12-31T18:47:16.621Z,99619.28
2022-12-31T18:49:43.882Z,99626.75
2022-12-31T18:52:10.768Z,99629.19
2022-12-31T18:54:37.750Z,99636.97
2022-12-31T18:57:04.594Z,99628.19
2022-12-31T18:59:32.041Z,99616.00
2022-12-31T19:02:00.174Z,99622.75
2022-12-31T19:04:28.454Z,99621.81
2022-12-31T19:06:55.857Z,99622.72
2022-12-31T19:09:44.533Z,99618.28
2022-12-31T19:12:09.937Z,99619.53
2022-12-31T19:14:36.711Z,99621.25
2022-12-31T19:19:29.429Z,99612.75
2022-12-31T19:21:56.376Z,99613.94
2022-12-31T19:24:23.295Z,99609.59
2022-12-31T19:26:50.492Z,99614.44
2022-12-31T19:29:17.742Z,99608.28
2022-12-31T19:31:44.820Z,99610.00
2022-12-31T19:34:11.787Z,99618.94
2022-12-31T19:36:43.754Z,99611.13
2022-12-31T19:39:11.034Z,99613.59
2022-12-31T19:41:37.920Z,99605.88
2022-12-31T19:44:04.854Z,99609.88
2022-12-31T19:46:31.709Z,99617.34
2022-12-31T19:48:58.711Z,99604.84
2022-12-31T19:51:25.830Z,99609.91
2022-12-31T19:53:52.931Z,99596.28
2022-12-31T19:56:20.893Z,99594.75
2022-12-31T19:58:47.781Z,99596.47
2022-12-31T20:01:14.770Z,99596.22
2022-12-31T20:03:42.098Z,99601.25
2022-12-31T20:06:09.067Z,99598.94
2022-12-31T20:08:36.066Z,99602.00
2022-12-31T20:11:03.016Z,99602.91
2022-12-31T20:13:30.026Z,99610.56
2022-12-31T20:15:57.167Z,99602.53
2022-12-31T20:18:24.046Z,99607.75
2022-12-31T20:20:55.601Z,99602.28
2022-12-31T20:23:22.983Z,99603.78
2022-12-31T20:25:49.866Z,99612.38
2022-12-31T20:28:17.244Z,99605.69
2022-12-31T20:30:44.188Z,99607.25
2022-12-31T20:33:15.770Z,99605.59
2022-12-31T20:35:45.777Z,99602.44
2022-12-31T20:38:12.697Z,99609.03
2022-12-31T20:40:46.129Z,99604.69
2022-12-31T20:43:13.699Z,99599.28
2022-12-31T20:45:40.695Z,99598.91
2022-12-31T20:48:07.852Z,99594.94
2022-12-31T20:50:34.891Z,99593.94
2022-12-31T20:53:01.702Z,99604.03
2022-12-31T20:55:28.592Z,99597.28
2022-12-31T20:57:55.430Z,99600.00
2022-12-31T21:00:22.239Z,99607.50
2022-12-31T21:02:57.581Z,99601.22
2022-12-31T21:05:31.508Z,99597.19
2022-12-31T21:07:58.494Z,99598.16
2022-12-31T21:10:25.370Z,99602.34
2022-12-31T21:12:52.279Z,99599.19
2022-12-31T21:15:19.177Z,99608.22
2022-12-31T21:17:46.171Z,99609.19
2022-12-31T21:20:12.977Z,99612.97
2022-12-31T21:22:40.040Z,99620.03
2022-12-31T21:25:07.193Z,99606.13
2022-12-31T21:27:34.062Z,99612.03
2022-12-31T21:30:18.312Z,99607.63
2022-12-31T21:32:46.043Z,99606.03
2022-12-31T21:38:00.824Z,99609.75
2022-12-31T21:40:27.783Z,99610.13
2022-12-31T21:42:55.328Z,99605.22
2022-12-31T21:45:22.234Z,99613.78
2022-12-31T21:47:49.087Z,99606.66
2022-12-31T21:50:16.218Z,99613.22
2022-12-31T21:52:43.219Z,99608.97
2022-12-31T21:55:10.115Z,99611.72
2022-12-31T21:58:15.184Z,99614.88
2022-12-31T22:00:41.858Z,99606.91
2022-12-31T22:03:09.562Z,99599.28
2022-12-31T22:05:36.540Z,99601.09
2022-12-31T22:08:03.375Z,99594.16
2022-12-31T22:10:32.567Z,99597.53
2022-12-31T22:13:03.911Z,99598.75
2022-12-31T22:15:31.333Z,99594.50
2022-12-31T22:17:59.376Z,99592.66
2022-12-31T22:20:27.918Z,99592.19
2022-12-31T22:22:55.622Z,99591.63
2022-12-31T22:25:22.453Z,99594.91
2022-12-31T22:28:11.585Z,99586.09
2022-12-31T22:30:36.214Z,99590.16
2022-12-31T22:33:03.120Z,99587.88
2022-12-31T22:35:29.996Z,99586.38
2022-12-31T22:38:00.898Z,99588.28
2022-12-31T22:40:32.269Z,99589.19
2022-12-31T22:42:59.158Z,99591.84
2022-12-31T22:45:26.308Z,99586.72
2022-12-31T22:47:53.235Z,99587.72
2022-12-31T22:50:20.117Z,99583.16
2022-12-31T22:52:47.064Z,99574.38
2022-12-31T22:55:14.051Z,99578.97
2022-12-31T22:57:41.723Z,99573.53
2022-12-31T23:00:10.875Z,99595.28
2022-12-31T23:02:41.660Z,99592.16
2022-12-31T23:05:15.800Z,99581.59
2022-12-31T23:07:43.464Z,99586.00
2022-12-31T23:10:10.495Z,99591.31
2022-12-31T23:12:37.477Z,99599.16
2022-12-31T23:15:04.325Z,99605.03
2022-12-31T23:17:32.166Z,99608.22
2022-12-31T23:19:59.608Z,99604.03
2022-12-31T23:22:26.780Z,99601.59
2022-12-31T23:24:53.916Z,99600.69
2022-12-31T23:27:20.970Z,99603.22
2022-12-31T23:29:47.936Z,99606.16
2022-12-31T23:32:14.823Z,99609.28
2022-12-31T23:34:41.727Z,99616.25
2022-12-31T23:37:09.810Z,99617.50
2022-12-31T23:39:36.797Z,99614.47
2022-12-31T23:42:03.632Z,99620.28
2022-12-31T23:44:30.779Z,99622.09
2022-12-31T23:46:57.705Z,99627.59
2022-12-31T23:49:24.568Z,99617.91
2022-12-31T23:51:52.216Z,99610.84
2022-12-31T23:54:19.460Z,99616.06
2022-12-31T23:56:48.707Z,99598.72
2022-12-31T23:59:18.137Z,99603.16
